createdAt,value
2016-07-28T00:00:13.436Z,957.64
2016-07-28T00:01:18.498Z,957.63
2016-07-28T00:02:21.952Z,957.67
2016-07-28T00:03:15.042Z,957.68
2016-07-28T00:04:21.128Z,957.70
2016-07-28T00:05:15.098Z,957.68
2016-07-28T00:06:39.765Z,957.71
2016-07-28T00:07:32.828Z,957.69
2016-07-28T00:08:16.016Z,957.69
2016-07-28T00:09:14.153Z,957.65
2016-07-28T00:10:13.382Z,957.65
2016-07-28T00:12:28.963Z,957.65
2016-07-28T00:13:15.206Z,957.60
2016-07-28T00:14:15.162Z,957.65
2016-07-28T00:15:19.639Z,957.64
2016-07-28T00:16:16.601Z,957.66
2016-07-28T00:17:16.162Z,957.64
2016-07-28T00:18:28.180Z,957.64
2016-07-28T00:19:23.508Z,957.66
2016-07-28T00:20:32.476Z,957.66
2016-07-28T00:21:21.792Z,957.67
2016-07-28T00:22:18.418Z,957.72
2016-07-28T00:23:23.970Z,957.74
2016-07-28T00:24:22.179Z,957.76
2016-07-28T00:25:14.289Z,957.77
2016-07-28T00:27:12.064Z,957.79
2016-07-28T00:28:13.545Z,957.84
2016-07-28T00:29:13.672Z,957.81
2016-07-28T00:30:41.738Z,957.87
2016-07-28T00:31:31.831Z,957.80
2016-07-28T00:32:18.646Z,957.83
2016-07-28T00:33:27.410Z,957.81
2016-07-28T00:34:16.267Z,957.77
2016-07-28T00:35:20.099Z,957.75
2016-07-28T00:36:11.500Z,957.71
2016-07-28T00:37:32.056Z,957.69
2016-07-28T00:38:37.697Z,957.72
2016-07-28T00:39:13.109Z,957.71
2016-07-28T00:40:23.138Z,957.69
2016-07-28T00:41:31.876Z,957.66
2016-07-28T00:42:26.941Z,957.65
2016-07-28T00:43:27.172Z,957.63
2016-07-28T00:44:22.377Z,957.56
2016-07-28T00:45:23.964Z,957.60
2016-07-28T00:46:33.178Z,957.54
2016-07-28T00:47:39.162Z,957.51
2016-07-28T00:48:28.319Z,957.55
2016-07-28T00:49:33.699Z,957.53
2016-07-28T00:50:38.721Z,957.57
2016-07-28T00:51:10.941Z,957.55
2016-07-28T00:52:12.822Z,957.59
2016-07-28T00:53:15.118Z,957.55
2016-07-28T00:54:12.859Z,957.56
2016-07-28T00:55:13.134Z,957.55
2016-07-28T00:56:37.719Z,957.52
2016-07-28T00:57:13.606Z,957.56
2016-07-28T00:58:15.148Z,957.54
2016-07-28T00:59:33.811Z,957.55
2016-07-28T01:00:16.433Z,957.60
2016-07-28T01:01:27.698Z,957.56
2016-07-28T01:02:32.063Z,957.56
2016-07-28T01:03:21.186Z,957.53
2016-07-28T01:04:13.034Z,957.54
2016-07-28T01:05:16.787Z,957.54
2016-07-28T01:06:32.044Z,957.51
2016-07-28T01:07:17.628Z,957.52
2016-07-28T01:08:15.421Z,957.54
2016-07-28T01:09:15.101Z,957.48
2016-07-28T01:10:25.878Z,957.54
2016-07-28T01:12:40.040Z,957.53
2016-07-28T01:13:23.760Z,957.51
2016-07-28T01:14:11.873Z,957.50
2016-07-28T01:15:15.758Z,957.48
2016-07-28T01:16:15.576Z,957.44
2016-07-28T01:17:21.758Z,957.50
2016-07-28T01:18:15.978Z,957.44
2016-07-28T01:19:13.009Z,957.41
2016-07-28T01:20:11.039Z,957.48
2016-07-28T01:21:33.081Z,957.46
2016-07-28T01:22:12.968Z,957.42
2016-07-28T01:23:13.933Z,957.44
2016-07-28T01:24:13.750Z,957.46
2016-07-28T01:25:13.061Z,957.43
2016-07-28T01:26:15.510Z,957.39
2016-07-28T01:27:15.745Z,957.40
2016-07-28T01:28:16.393Z,957.39
2016-07-28T01:29:16.631Z,957.37
2016-07-28T01:30:15.106Z,957.37
2016-07-28T01:31:33.814Z,957.38
2016-07-28T01:32:37.439Z,957.40
2016-07-28T01:33:11.500Z,957.37
2016-07-28T01:34:12.338Z,957.40
2016-07-28T01:35:16.287Z,957.37
2016-07-28T01:36:14.604Z,957.36
2016-07-28T01:37:32.146Z,957.40
2016-07-28T01:38:17.272Z,957.39
2016-07-28T01:39:14.329Z,957.40
2016-07-28T01:40:12.690Z,957.38
2016-07-28T01:42:12.068Z,957.42
2016-07-28T01:43:26.836Z,957.36
2016-07-28T01:44:27.466Z,957.33
2016-07-28T01:45:29.636Z,957.34
2016-07-28T01:46:14.164Z,957.33
2016-07-28T01:47:21.780Z,957.30
2016-07-28T01:48:30.377Z,957.27
2016-07-28T01:49:17.775Z,957.28
2016-07-28T01:50:35.998Z,957.28
2016-07-28T01:51:12.708Z,957.33
2016-07-28T01:52:42.124Z,957.32
2016-07-28T01:53:16.066Z,957.31
2016-07-28T01:54:13.347Z,957.31
2016-07-28T01:55:32.065Z,957.30
2016-07-28T01:57:32.838Z,957.28
2016-07-28T01:58:16.274Z,957.29
2016-07-28T01:59:17.527Z,957.29
2016-07-28T02:00:28.835Z,957.29
2016-07-28T02:01:32.025Z,957.28
2016-07-28T02:02:14.759Z,957.29
2016-07-28T02:03:26.378Z,957.27
2016-07-28T02:04:31.436Z,957.26
2016-07-28T02:05:37.038Z,957.32
2016-07-28T02:06:18.336Z,957.31
2016-07-28T02:07:33.723Z,957.28
2016-07-28T02:08:29.734Z,957.30
2016-07-28T02:09:33.018Z,957.26
2016-07-28T02:10:15.121Z,957.28
2016-07-28T02:11:39.257Z,957.29
2016-07-28T02:12:39.667Z,957.30
2016-07-28T02:13:20.169Z,957.33
2016-07-28T02:14:20.928Z,957.30
2016-07-28T02:15:25.990Z,957.32
2016-07-28T02:16:26.271Z,957.30
2016-07-28T02:17:11.012Z,957.28
2016-07-28T02:18:28.081Z,957.34
2016-07-28T02:19:15.562Z,957.33
2016-07-28T02:20:33.112Z,957.36
2016-07-28T02:21:14.800Z,957.32
2016-07-28T02:22:15.768Z,957.31
2016-07-28T02:23:27.281Z,957.31
2016-07-28T02:24:18.995Z,957.27
2016-07-28T02:25:38.405Z,957.26
2016-07-28T02:26:20.414Z,957.25
2016-07-28T02:27:13.929Z,957.29
2016-07-28T02:28:39.322Z,957.29
2016-07-28T02:29:33.305Z,957.29
2016-07-28T02:30:43.920Z,957.30
2016-07-28T02:31:32.636Z,957.30
2016-07-28T02:32:22.184Z,957.32
2016-07-28T02:33:27.574Z,957.34
2016-07-28T02:34:44.317Z,957.29
2016-07-28T02:35:12.030Z,957.27
2016-07-28T02:36:25.563Z,957.30
2016-07-28T02:37:14.577Z,957.30
2016-07-28T02:38:27.354Z,957.30
2016-07-28T02:39:37.830Z,957.32
2016-07-28T02:40:33.170Z,957.31
2016-07-28T02:41:22.136Z,957.31
2016-07-28T02:42:13.857Z,957.29
2016-07-28T02:43:16.990Z,957.26
2016-07-28T02:44:14.448Z,957.33
2016-07-28T02:45:43.125Z,957.27
2016-07-28T02:46:14.881Z,957.27
2016-07-28T02:47:26.819Z,957.33
2016-07-28T02:48:38.235Z,957.29
2016-07-28T02:49:34.934Z,957.31
2016-07-28T02:50:32.823Z,957.30
2016-07-28T02:51:23.539Z,957.28
2016-07-28T02:52:11.564Z,957.33
2016-07-28T02:53:33.100Z,957.35
2016-07-28T02:54:22.389Z,957.30
2016-07-28T02:55:45.174Z,957.32
2016-07-28T02:56:27.066Z,957.33
2016-07-28T02:57:12.759Z,957.31
2016-07-28T02:58:31.578Z,957.33
2016-07-28T02:59:15.884Z,957.36
2016-07-28T03:00:33.185Z,957.30
2016-07-28T03:01:27.068Z,957.32
2016-07-28T03:02:25.293Z,957.31
2016-07-28T03:03:14.844Z,957.34
2016-07-28T03:04:31.242Z,957.30
2016-07-28T03:05:37.523Z,957.37
2016-07-28T03:06:14.486Z,957.36
2016-07-28T03:07:14.032Z,957.33
2016-07-28T03:08:30.225Z,957.36
2016-07-28T03:09:23.920Z,957.38
2016-07-28T03:10:12.620Z,957.38
2016-07-28T03:11:38.800Z,957.42
2016-07-28T03:12:28.416Z,957.41
2016-07-28T03:13:33.449Z,957.37
2016-07-28T03:14:14.649Z,957.38
2016-07-28T03:15:33.461Z,957.42
2016-07-28T03:16:37.714Z,957.44
2016-07-28T03:17:13.224Z,957.43
2016-07-28T03:18:22.728Z,957.44
2016-07-28T03:19:13.986Z,957.44
2016-07-28T03:20:27.067Z,957.44
2016-07-28T03:21:25.230Z,957.38
2016-07-28T03:22:14.291Z,957.36
2016-07-28T03:23:32.586Z,957.38
2016-07-28T03:24:15.375Z,957.35
2016-07-28T03:25:12.822Z,957.37
2016-07-28T03:26:33.539Z,957.40
2016-07-28T03:27:26.845Z,957.34
2016-07-28T03:28:46.653Z,957.32
2016-07-28T03:29:26.392Z,957.32
2016-07-28T03:30:22.438Z,957.35
2016-07-28T03:31:11.154Z,957.34
2016-07-28T03:32:12.215Z,957.34
2016-07-28T03:33:12.576Z,957.35
2016-07-28T03:34:32.982Z,957.37
2016-07-28T03:35:35.965Z,957.34
2016-07-28T03:36:33.851Z,957.29
2016-07-28T03:37:21.375Z,957.33
2016-07-28T03:38:32.064Z,957.33
2016-07-28T03:39:12.946Z,957.34
2016-07-28T03:40:12.943Z,957.31
2016-07-28T03:41:12.704Z,957.31
2016-07-28T03:42:16.363Z,957.29
2016-07-28T03:43:12.558Z,957.24
2016-07-28T03:44:33.023Z,957.27
2016-07-28T03:45:32.695Z,957.31
2016-07-28T03:46:25.266Z,957.32
2016-07-28T03:47:23.144Z,957.32
2016-07-28T03:48:26.931Z,957.35
2016-07-28T03:49:29.843Z,957.30
2016-07-28T03:50:31.275Z,957.32
2016-07-28T03:51:26.565Z,957.34
2016-07-28T03:52:15.216Z,957.29
2016-07-28T03:53:13.526Z,957.29
2016-07-28T03:54:28.907Z,957.27
2016-07-28T03:55:31.665Z,957.23
2016-07-28T03:56:26.453Z,957.28
2016-07-28T03:58:22.988Z,957.24
2016-07-28T03:59:36.836Z,957.22
2016-07-28T04:00:32.491Z,957.24
2016-07-28T04:01:33.448Z,957.27
2016-07-28T04:02:26.468Z,957.23
2016-07-28T04:03:22.484Z,957.32
2016-07-28T04:04:23.590Z,957.31
2016-07-28T04:05:31.074Z,957.22
2016-07-28T04:06:17.343Z,957.28
2016-07-28T04:07:17.116Z,957.24
2016-07-28T04:08:31.635Z,957.23
2016-07-28T04:09:13.534Z,957.23
2016-07-28T04:10:33.343Z,957.24
2016-07-28T04:11:25.694Z,957.20
2016-07-28T04:12:29.160Z,957.24
2016-07-28T04:13:30.269Z,957.22
2016-07-28T04:14:16.298Z,957.20
2016-07-28T04:15:33.432Z,957.17
2016-07-28T04:16:19.457Z,957.17
2016-07-28T04:17:14.759Z,957.23
2016-07-28T04:18:33.442Z,957.19
2016-07-28T04:19:28.659Z,957.18
2016-07-28T04:20:13.071Z,957.18
2016-07-28T04:21:15.661Z,957.17
2016-07-28T04:22:32.320Z,957.12
2016-07-28T04:23:24.046Z,957.12
2016-07-28T04:24:32.429Z,957.14
2016-07-28T04:25:17.633Z,957.14
2016-07-28T04:26:27.802Z,957.11
2016-07-28T04:27:33.028Z,957.09
2016-07-28T04:28:22.757Z,957.10
2016-07-28T04:29:15.712Z,957.10
2016-07-28T04:30:32.230Z,957.12
2016-07-28T04:31:15.526Z,957.17
2016-07-28T04:32:13.407Z,957.18
2016-07-28T04:33:25.304Z,957.19
2016-07-28T04:34:32.376Z,957.20
2016-07-28T04:35:13.735Z,957.22
2016-07-28T04:36:28.545Z,957.21
2016-07-28T04:37:37.810Z,957.19
2016-07-28T04:38:36.191Z,957.20
2016-07-28T04:39:40.402Z,957.19
2016-07-28T04:40:32.034Z,957.17
2016-07-28T04:41:13.654Z,957.18
2016-07-28T04:42:18.236Z,957.18
2016-07-28T04:43:37.515Z,957.17
2016-07-28T04:44:30.704Z,957.19
2016-07-28T04:45:24.438Z,957.21
2016-07-28T04:46:32.112Z,957.21
2016-07-28T04:47:16.408Z,957.17
2016-07-28T04:48:16.997Z,957.19
2016-07-28T04:49:21.651Z,957.15
2016-07-28T04:50:26.336Z,957.18
2016-07-28T04:51:27.760Z,957.19
2016-07-28T04:52:26.940Z,957.17
2016-07-28T04:53:13.268Z,957.17
2016-07-28T04:54:14.158Z,957.17
2016-07-28T04:55:13.031Z,957.26
2016-07-28T04:56:19.856Z,957.27
2016-07-28T04:58:23.937Z,957.28
2016-07-28T04:59:15.602Z,957.29
2016-07-28T05:00:14.187Z,957.25
2016-07-28T05:01:23.289Z,957.22
2016-07-28T05:02:27.698Z,957.27
2016-07-28T05:03:32.422Z,957.28
2016-07-28T05:04:24.709Z,957.25
2016-07-28T05:05:22.377Z,957.29
2016-07-28T05:06:19.222Z,957.24
2016-07-28T05:07:12.948Z,957.27
2016-07-28T05:08:12.974Z,957.27
2016-07-28T05:09:15.026Z,957.27
2016-07-28T05:10:18.080Z,957.29
2016-07-28T05:11:22.331Z,957.28
2016-07-28T05:13:14.754Z,957.24
2016-07-28T05:14:13.539Z,957.28
2016-07-28T05:15:13.770Z,957.34
2016-07-28T05:16:31.140Z,957.33
2016-07-28T05:17:27.022Z,957.36
2016-07-28T05:18:27.517Z,957.33
2016-07-28T05:19:28.141Z,957.35
2016-07-28T05:20:16.338Z,957.34
2016-07-28T05:21:23.408Z,957.33
2016-07-28T05:22:28.384Z,957.34
2016-07-28T05:23:23.807Z,957.35
2016-07-28T05:24:11.803Z,957.35
2016-07-28T05:25:16.197Z,957.38
2016-07-28T05:26:22.567Z,957.34
2016-07-28T05:28:23.143Z,957.41
2016-07-28T05:29:27.233Z,957.41
2016-07-28T05:30:28.740Z,957.44
2016-07-28T05:31:14.555Z,957.41
2016-07-28T05:32:10.287Z,957.44
2016-07-28T05:33:21.492Z,957.45
2016-07-28T05:34:27.940Z,957.42
2016-07-28T05:35:23.321Z,957.43
2016-07-28T05:36:26.906Z,957.42
2016-07-28T05:37:17.207Z,957.44
2016-07-28T05:38:27.094Z,957.44
2016-07-28T05:39:22.883Z,957.40
2016-07-28T05:40:25.484Z,957.41
2016-07-28T05:41:14.093Z,957.43
2016-07-28T05:42:15.389Z,957.35
2016-07-28T05:43:23.847Z,957.35
2016-07-28T05:44:22.859Z,957.37
2016-07-28T05:45:22.355Z,957.37
2016-07-28T05:46:25.365Z,957.39
2016-07-28T05:47:25.580Z,957.36
2016-07-28T05:48:32.701Z,957.38
2016-07-28T05:49:19.729Z,957.36
2016-07-28T05:51:18.734Z,957.39
2016-07-28T05:52:28.472Z,957.41
2016-07-28T05:53:23.206Z,957.40
2016-07-28T05:54:28.241Z,957.38
2016-07-28T05:55:25.442Z,957.40
2016-07-28T05:56:27.550Z,957.39
2016-07-28T05:58:12.927Z,957.43
2016-07-28T05:59:20.827Z,957.39
2016-07-28T06:00:12.558Z,957.42
2016-07-28T06:01:22.454Z,957.45
2016-07-28T06:02:18.815Z,957.45
2016-07-28T06:03:12.525Z,957.43
2016-07-28T06:04:23.632Z,957.44
2016-07-28T06:05:18.594Z,957.45
2016-07-28T06:06:16.964Z,957.42
2016-07-28T06:07:14.143Z,957.38
2016-07-28T06:08:24.161Z,957.38
2016-07-28T06:09:33.635Z,957.40
2016-07-28T06:10:14.490Z,957.38
2016-07-28T06:11:22.717Z,957.42
2016-07-28T06:12:19.072Z,957.47
2016-07-28T06:13:22.634Z,957.46
2016-07-28T06:14:12.478Z,957.45
2016-07-28T06:15:20.064Z,957.48
2016-07-28T06:16:15.894Z,957.49
2016-07-28T06:17:24.219Z,957.45
2016-07-28T06:18:30.533Z,957.47
2016-07-28T06:19:27.811Z,957.46
2016-07-28T06:20:25.987Z,957.49
2016-07-28T06:21:26.162Z,957.47
2016-07-28T06:22:27.914Z,957.52
2016-07-28T06:23:19.137Z,957.53
2016-07-28T06:24:22.432Z,957.51
2016-07-28T06:25:21.942Z,957.54
2016-07-28T06:26:33.964Z,957.54
2016-07-28T06:27:24.054Z,957.52
2016-07-28T06:28:13.918Z,957.57
2016-07-28T06:29:28.594Z,957.57
2016-07-28T06:30:16.802Z,957.56
2016-07-28T06:31:30.429Z,957.55
2016-07-28T06:32:13.295Z,957.55
2016-07-28T06:33:13.635Z,957.50
2016-07-28T06:34:14.337Z,957.54
2016-07-28T06:35:11.656Z,957.58
2016-07-28T06:36:29.458Z,957.56
2016-07-28T06:37:22.942Z,957.58
2016-07-28T06:38:21.622Z,957.59
2016-07-28T06:39:26.352Z,957.54
2016-07-28T06:40:26.699Z,957.58
2016-07-28T06:41:24.425Z,957.62
2016-07-28T06:42:26.486Z,957.62
2016-07-28T06:43:22.692Z,957.62
2016-07-28T06:44:39.833Z,957.61
2016-07-28T06:45:20.213Z,957.61
2016-07-28T06:46:28.575Z,957.61
2016-07-28T06:47:18.677Z,957.63
2016-07-28T06:48:14.863Z,957.61
2016-07-28T06:49:13.145Z,957.63
2016-07-28T06:50:12.380Z,957.65
2016-07-28T06:51:13.029Z,957.63
2016-07-28T06:52:17.566Z,957.59
2016-07-28T06:53:33.297Z,957.62
2016-07-28T06:54:22.920Z,957.57
2016-07-28T06:55:33.776Z,957.55
2016-07-28T06:56:13.817Z,957.55
2016-07-28T06:57:23.361Z,957.56
2016-07-28T06:58:21.832Z,957.57
2016-07-28T06:59:32.710Z,957.58
2016-07-28T07:00:25.240Z,957.51
2016-07-28T07:01:27.332Z,957.54
2016-07-28T07:02:30.790Z,957.54
2016-07-28T07:03:26.053Z,957.53
2016-07-28T07:04:26.413Z,957.52
2016-07-28T07:05:31.558Z,957.56
2016-07-28T07:06:27.695Z,957.56
2016-07-28T07:07:28.653Z,957.58
2016-07-28T07:08:15.356Z,957.52
2016-07-28T07:09:24.820Z,957.60
2016-07-28T07:10:18.535Z,957.62
2016-07-28T07:11:28.440Z,957.56
2016-07-28T07:12:14.170Z,957.59
2016-07-28T07:13:26.561Z,957.55
2016-07-28T07:14:14.006Z,957.60
2016-07-28T07:15:27.329Z,957.63
2016-07-28T07:16:15.062Z,957.60
2016-07-28T07:17:11.109Z,957.59
2016-07-28T07:18:32.059Z,957.59
2016-07-28T07:19:15.263Z,957.57
2016-07-28T07:20:14.321Z,957.57
2016-07-28T07:21:13.704Z,957.55
2016-07-28T07:22:19.354Z,957.52
2016-07-28T07:23:31.979Z,957.52
2016-07-28T07:24:32.788Z,957.55
2016-07-28T07:25:14.730Z,957.53
2016-07-28T07:26:20.698Z,957.62
2016-07-28T07:27:33.017Z,957.59
2016-07-28T07:28:23.797Z,957.57
2016-07-28T07:29:37.239Z,957.60
2016-07-28T07:30:30.078Z,957.57
2016-07-28T07:31:27.829Z,957.54
2016-07-28T07:32:16.464Z,957.54
2016-07-28T07:33:26.195Z,957.56
2016-07-28T07:34:31.526Z,957.57
2016-07-28T07:35:26.408Z,957.55
2016-07-28T07:36:31.630Z,957.53
2016-07-28T07:37:27.489Z,957.48
2016-07-28T07:38:34.519Z,957.48
2016-07-28T07:39:44.303Z,957.50
2016-07-28T07:40:14.118Z,957.49
2016-07-28T07:41:27.148Z,957.48
2016-07-28T07:42:16.323Z,957.48
2016-07-28T07:43:18.676Z,957.56
2016-07-28T07:44:13.589Z,957.52
2016-07-28T07:45:15.592Z,957.52
2016-07-28T07:46:15.192Z,957.53
2016-07-28T07:47:18.152Z,957.56
2016-07-28T07:48:16.962Z,957.53
2016-07-28T07:49:14.020Z,957.57
2016-07-28T07:50:16.139Z,957.51
2016-07-28T07:51:15.615Z,957.52
2016-07-28T07:52:16.081Z,957.55
2016-07-28T07:53:13.817Z,957.57
2016-07-28T07:54:13.914Z,957.56
2016-07-28T07:55:16.248Z,957.54
2016-07-28T07:56:17.936Z,957.55
2016-07-28T07:57:15.348Z,957.52
2016-07-28T07:58:19.556Z,957.52
2016-07-28T07:59:16.338Z,957.49
2016-07-28T08:00:15.707Z,957.56
2016-07-28T08:01:16.087Z,957.56
2016-07-28T08:02:16.158Z,957.54
2016-07-28T08:03:16.877Z,957.57
2016-07-28T08:04:13.539Z,957.53
2016-07-28T08:05:15.423Z,957.53
2016-07-28T08:06:16.775Z,957.43
2016-07-28T08:07:15.238Z,957.50
2016-07-28T08:08:19.363Z,957.46
2016-07-28T08:09:13.414Z,957.46
2016-07-28T08:10:22.737Z,957.43
2016-07-28T08:11:27.402Z,957.48
2016-07-28T08:12:29.333Z,957.49
2016-07-28T08:13:20.420Z,957.50
2016-07-28T08:14:12.083Z,957.48
2016-07-28T08:15:21.984Z,957.49
2016-07-28T08:16:12.516Z,957.44
2016-07-28T08:17:12.766Z,957.47
2016-07-28T08:18:31.962Z,957.49
2016-07-28T08:19:21.223Z,957.45
2016-07-28T08:20:19.491Z,957.47
2016-07-28T08:21:32.446Z,957.48
2016-07-28T08:22:19.880Z,957.43
2016-07-28T08:23:15.361Z,957.48
2016-07-28T08:24:21.555Z,957.48
2016-07-28T08:25:21.821Z,957.48
2016-07-28T08:26:14.086Z,957.45
2016-07-28T08:27:33.022Z,957.47
2016-07-28T08:28:13.441Z,957.44
2016-07-28T08:29:13.188Z,957.43
2016-07-28T08:30:26.099Z,957.47
2016-07-28T08:31:14.750Z,957.40
2016-07-28T08:32:13.586Z,957.40
2016-07-28T08:33:18.956Z,957.38
2016-07-28T08:34:21.442Z,957.42
2016-07-28T08:35:27.742Z,957.37
2016-07-28T08:36:32.195Z,957.38
2016-07-28T08:37:24.405Z,957.40
2016-07-28T08:38:28.494Z,957.37
2016-07-28T08:39:12.543Z,957.41
2016-07-28T08:40:29.933Z,957.35
2016-07-28T08:41:31.261Z,957.39
2016-07-28T08:42:25.952Z,957.35
2016-07-28T08:43:33.613Z,957.40
2016-07-28T08:44:38.439Z,957.40
2016-07-28T08:45:12.707Z,957.35
2016-07-28T08:46:14.835Z,957.36
2016-07-28T08:47:27.868Z,957.34
2016-07-28T08:48:16.163Z,957.33
2016-07-28T08:49:27.739Z,957.36
2016-07-28T08:50:31.647Z,957.33
2016-07-28T08:51:12.747Z,957.34
2016-07-28T08:52:11.926Z,957.32
2016-07-28T08:53:13.644Z,957.34
2016-07-28T08:54:11.948Z,957.32
2016-07-28T08:55:15.261Z,957.32
2016-07-28T08:56:16.643Z,957.32
2016-07-28T08:57:16.414Z,957.35
2016-07-28T08:58:23.920Z,957.35
2016-07-28T08:59:26.994Z,957.32
2016-07-28T09:00:35.622Z,957.31
2016-07-28T09:01:14.140Z,957.35
2016-07-28T09:02:32.319Z,957.31
2016-07-28T09:03:20.748Z,957.32
2016-07-28T09:04:18.953Z,957.33
2016-07-28T09:05:22.661Z,957.31
2016-07-28T09:06:31.004Z,957.35
2016-07-28T09:07:14.218Z,957.35
2016-07-28T09:08:14.092Z,957.37
2016-07-28T09:09:12.267Z,957.32
2016-07-28T09:10:38.227Z,957.36
2016-07-28T09:11:29.341Z,957.36
2016-07-28T09:12:17.493Z,957.36
2016-07-28T09:14:15.948Z,957.34
2016-07-28T09:15:24.684Z,957.37
2016-07-28T09:16:38.654Z,957.35
2016-07-28T09:17:19.300Z,957.35
2016-07-28T09:18:11.019Z,957.35
2016-07-28T09:19:22.404Z,957.36
2016-07-28T09:20:14.618Z,957.33
2016-07-28T09:21:37.280Z,957.36
2016-07-28T09:22:14.991Z,957.34
2016-07-28T09:23:24.635Z,957.35
2016-07-28T09:24:31.871Z,957.31
2016-07-28T09:25:23.612Z,957.34
2016-07-28T09:26:29.824Z,957.33
2016-07-28T09:27:33.482Z,957.30
2016-07-28T09:28:33.534Z,957.27
2016-07-28T09:29:23.722Z,957.26
2016-07-28T09:30:33.356Z,957.25
2016-07-28T09:31:32.722Z,957.25
2016-07-28T09:32:26.823Z,957.27
2016-07-28T09:33:30.930Z,957.29
2016-07-28T09:34:28.962Z,957.26
2016-07-28T09:35:15.436Z,957.26
2016-07-28T09:36:14.616Z,957.29
2016-07-28T09:37:14.630Z,957.22
2016-07-28T09:38:34.063Z,957.20
2016-07-28T09:39:16.261Z,957.20
2016-07-28T09:40:27.469Z,957.19
2016-07-28T09:41:21.715Z,957.18
2016-07-28T09:42:36.216Z,957.19
2016-07-28T09:43:31.991Z,957.18
2016-07-28T09:44:13.327Z,957.19
2016-07-28T09:45:12.781Z,957.15
2016-07-28T09:46:12.832Z,957.14
2016-07-28T09:47:22.612Z,957.12
2016-07-28T09:48:14.444Z,957.14
2016-07-28T09:49:22.715Z,957.11
2016-07-28T09:50:27.594Z,957.13
2016-07-28T09:51:28.929Z,957.12
2016-07-28T09:52:26.320Z,957.13
2016-07-28T09:53:26.685Z,957.13
2016-07-28T09:54:37.123Z,957.12
2016-07-28T09:55:31.304Z,957.12
2016-07-28T09:56:13.223Z,957.11
2016-07-28T09:57:16.190Z,957.12
2016-07-28T09:58:14.045Z,957.11
2016-07-28T09:59:16.142Z,957.06
2016-07-28T10:00:36.074Z,957.08
2016-07-28T10:01:40.693Z,957.06
2016-07-28T10:02:37.045Z,957.05
2016-07-28T10:03:21.041Z,957.07
2016-07-28T10:04:45.689Z,957.09
2016-07-28T10:05:12.185Z,957.07
2016-07-28T10:06:24.562Z,957.06
2016-07-28T10:07:12.473Z,957.08
2016-07-28T10:08:15.427Z,957.05
2016-07-28T10:09:14.115Z,957.04
2016-07-28T10:10:37.509Z,957.01
2016-07-28T10:11:39.550Z,957.02
2016-07-28T10:12:14.514Z,956.97
2016-07-28T10:13:33.730Z,956.97
2016-07-28T10:14:14.595Z,956.95
2016-07-28T10:15:12.170Z,956.89
2016-07-28T10:16:31.740Z,956.95
2016-07-28T10:17:14.918Z,956.95
2016-07-28T10:18:32.361Z,956.90
2016-07-28T10:19:13.698Z,956.91
2016-07-28T10:20:38.018Z,956.90
2016-07-28T10:21:17.882Z,956.90
2016-07-28T10:22:34.129Z,956.88
2016-07-28T10:23:14.852Z,956.90
2016-07-28T10:24:33.713Z,956.90
2016-07-28T10:25:36.353Z,956.90
2016-07-28T10:26:26.263Z,956.92
2016-07-28T10:27:10.494Z,956.89
2016-07-28T10:29:22.498Z,956.89
2016-07-28T10:30:10.629Z,956.90
2016-07-28T10:31:12.159Z,956.87
2016-07-28T10:32:33.115Z,956.86
2016-07-28T10:33:32.655Z,956.82
2016-07-28T10:34:26.911Z,956.82
2016-07-28T10:35:12.083Z,956.83
2016-07-28T10:36:12.797Z,956.84
2016-07-28T10:37:28.494Z,956.84
2016-07-28T10:38:38.347Z,956.83
2016-07-28T10:39:39.341Z,956.81
2016-07-28T10:40:38.509Z,956.85
2016-07-28T10:41:30.680Z,956.78
2016-07-28T10:42:13.760Z,956.82
2016-07-28T10:43:37.600Z,956.84
2016-07-28T10:44:16.717Z,956.79
2016-07-28T10:45:23.325Z,956.77
2016-07-28T10:46:25.162Z,956.79
2016-07-28T10:47:35.959Z,956.77
2016-07-28T10:48:25.128Z,956.75
2016-07-28T10:49:37.865Z,956.76
2016-07-28T10:50:11.062Z,956.75
2016-07-28T10:51:13.435Z,956.76
2016-07-28T10:52:17.508Z,956.78
2016-07-28T10:53:35.499Z,956.74
2016-07-28T10:54:37.826Z,956.73
2016-07-28T10:55:32.789Z,956.73
2016-07-28T10:56:18.805Z,956.75
2016-07-28T10:57:11.146Z,956.77
2016-07-28T10:58:26.059Z,956.74
2016-07-28T10:59:11.814Z,956.75
2016-07-28T11:00:32.289Z,956.72
2016-07-28T11:01:13.179Z,956.68
2016-07-28T11:02:16.702Z,956.68
2016-07-28T11:03:18.901Z,956.66
2016-07-28T11:04:32.810Z,956.66
2016-07-28T11:05:31.310Z,956.64
2016-07-28T11:06:28.896Z,956.63
2016-07-28T11:07:25.865Z,956.71
2016-07-28T11:08:13.161Z,956.66
2016-07-28T11:09:10.735Z,956.70
2016-07-28T11:10:31.819Z,956.66
2016-07-28T11:11:13.405Z,956.70
2016-07-28T11:12:37.850Z,956.65
2016-07-28T11:13:11.895Z,956.67
2016-07-28T11:14:23.339Z,956.64
2016-07-28T11:15:18.692Z,956.63
2016-07-28T11:16:32.288Z,956.63
2016-07-28T11:17:14.378Z,956.59
2016-07-28T11:18:13.929Z,956.65
2016-07-28T11:19:26.631Z,956.63
2016-07-28T11:20:10.639Z,956.62
2016-07-28T11:21:13.008Z,956.61
2016-07-28T11:22:22.886Z,956.60
2016-07-28T11:23:11.571Z,956.60
2016-07-28T11:24:29.525Z,956.60
2016-07-28T11:25:24.065Z,956.63
2016-07-28T11:26:13.928Z,956.61
2016-07-28T11:27:30.302Z,956.62
2016-07-28T11:28:28.500Z,956.64
2016-07-28T11:29:16.783Z,956.56
2016-07-28T11:30:13.175Z,956.58
2016-07-28T11:31:16.302Z,956.57
2016-07-28T11:32:14.359Z,956.55
2016-07-28T11:33:11.826Z,956.57
2016-07-28T11:34:42.576Z,956.56
2016-07-28T11:35:34.051Z,956.52
2016-07-28T11:36:15.682Z,956.52
2016-07-28T11:37:12.674Z,956.51
2016-07-28T11:38:24.866Z,956.47
2016-07-28T11:39:15.509Z,956.53
2016-07-28T11:40:13.782Z,956.50
2016-07-28T11:41:14.966Z,956.47
2016-07-28T11:42:27.730Z,956.50
2016-07-28T11:43:11.756Z,956.47
2016-07-28T11:44:12.206Z,956.50
2016-07-28T11:45:24.028Z,956.53
2016-07-28T11:46:13.914Z,956.49
2016-07-28T11:47:13.277Z,956.52
2016-07-28T11:48:13.740Z,956.52
2016-07-28T11:49:12.023Z,956.50
2016-07-28T11:50:15.194Z,956.46
2016-07-28T11:51:14.330Z,956.46
2016-07-28T11:52:13.361Z,956.47
2016-07-28T11:53:10.667Z,956.42
2016-07-28T11:54:16.201Z,956.45
2016-07-28T11:55:18.532Z,956.40
2016-07-28T11:56:15.924Z,956.40
2016-07-28T11:57:26.111Z,956.38
2016-07-28T11:58:11.326Z,956.37
2016-07-28T11:59:23.111Z,956.39
2016-07-28T12:00:16.367Z,956.38
2016-07-28T12:01:27.638Z,956.37
2016-07-28T12:02:32.184Z,956.37
2016-07-28T12:03:32.634Z,956.35
2016-07-28T12:04:14.835Z,956.34
2016-07-28T12:05:13.244Z,956.33
2016-07-28T12:06:32.190Z,956.35
2016-07-28T12:07:19.739Z,956.31
2016-07-28T12:08:25.537Z,956.31
2016-07-28T12:09:23.301Z,956.31
2016-07-28T12:10:20.216Z,956.29
2016-07-28T12:11:35.187Z,956.21
2016-07-28T12:12:24.351Z,956.23
2016-07-28T12:13:25.070Z,956.25
2016-07-28T12:14:14.619Z,956.22
2016-07-28T12:15:32.994Z,956.18
2016-07-28T12:16:27.466Z,956.15
2016-07-28T12:17:30.071Z,956.19
2016-07-28T12:18:22.415Z,956.21
2016-07-28T12:19:13.984Z,956.23
2016-07-28T12:20:20.859Z,956.19
2016-07-28T12:21:15.923Z,956.21
2016-07-28T12:22:13.371Z,956.23
2016-07-28T12:23:24.390Z,956.21
2016-07-28T12:24:14.511Z,956.20
2016-07-28T12:25:11.876Z,956.19
2016-07-28T12:26:26.018Z,956.20
2016-07-28T12:27:32.953Z,956.08
2016-07-28T12:28:14.770Z,956.16
2016-07-28T12:29:33.431Z,956.12
2016-07-28T12:30:33.546Z,956.10
2016-07-28T12:31:24.943Z,956.09
2016-07-28T12:32:35.487Z,956.07
2016-07-28T12:33:13.110Z,956.05
2016-07-28T12:34:25.947Z,956.07
2016-07-28T12:35:37.833Z,956.08
2016-07-28T12:36:27.013Z,956.09
2016-07-28T12:37:32.837Z,956.08
2016-07-28T12:38:34.724Z,956.04
2016-07-28T12:39:33.545Z,956.05
2016-07-28T12:40:13.955Z,956.05
2016-07-28T12:41:15.432Z,956.08